sensor_id;sensor_type;location;lat;lon;timestamp;P1;durP1;ratioP1;P2;durP2;ratioP2
51852;SDS011;37894;53.172;6.598;2024-03-08T00:02:03;40.22;;;20.98;;
51852;SDS011;37894;53.172;6.598;2024-03-08T00:04:29;41.33;;;22.40;;
51852;SDS011;37894;53.172;6.598;2024-03-08T00:06:54;37.00;;;21.27;;
51852;SDS011;37894;53.172;6.598;2024-03-08T00:09:20;46.58;;;23.50;;
51852;SDS011;37894;53.172;6.598;2024-03-08T00:11:46;43.40;;;22.33;;
51852;SDS011;37894;53.172;6.598;2024-03-08T00:14:15;42.13;;;21.17;;
51852;SDS011;37894;53.172;6.598;2024-03-08T00:16:41;43.92;;;21.90;;
51852;SDS011;37894;53.172;6.598;2024-03-08T00:19:09;45.28;;;22.35;;
51852;SDS011;37894;53.172;6.598;2024-03-08T00:21:35;43.35;;;23.50;;
51852;SDS011;37894;53.172;6.598;2024-03-08T00:24:01;48.22;;;22.60;;
51852;SDS011;37894;53.172;6.598;2024-03-08T00:26:27;44.47;;;23.05;;
51852;SDS011;37894;53.172;6.598;2024-03-08T00:28:55;43.05;;;21.75;;
51852;SDS011;37894;53.172;6.598;2024-03-08T00:31:21;43.65;;;22.50;;
51852;SDS011;37894;53.172;6.598;2024-03-08T00:33:47;44.47;;;22.65;;
51852;SDS011;37894;53.172;6.598;2024-03-08T00:36:13;46.05;;;21.50;;
51852;SDS011;37894;53.172;6.598;2024-03-08T00:38:39;43.95;;;22.90;;
51852;SDS011;37894;53.172;6.598;2024-03-08T00:41:05;48.13;;;23.77;;
51852;SDS011;37894;53.172;6.598;2024-03-08T00:43:31;47.85;;;23.60;;
51852;SDS011;37894;53.172;6.598;2024-03-08T00:45:57;43.55;;;24.00;;
51852;SDS011;37894;53.172;6.598;2024-03-08T00:48:23;46.30;;;23.15;;
51852;SDS011;37894;53.172;6.598;2024-03-08T00:50:49;46.30;;;22.92;;
51852;SDS011;37894;53.172;6.598;2024-03-08T00:53:15;46.67;;;22.45;;
51852;SDS011;37894;53.172;6.598;2024-03-08T00:55:42;50.60;;;22.58;;
51852;SDS011;37894;53.172;6.598;2024-03-08T00:58:07;48.22;;;24.00;;
51852;SDS011;37894;53.172;6.598;2024-03-08T01:00:34;47.15;;;22.88;;
51852;SDS011;37894;53.172;6.598;2024-03-08T01:03:00;50.90;;;23.48;;
51852;SDS011;37894;53.172;6.598;2024-03-08T01:05:26;49.67;;;23.88;;
51852;SDS011;37894;53.172;6.598;2024-03-08T01:07:51;49.72;;;22.52;;
51852;SDS011;37894;53.172;6.598;2024-03-08T01:10:17;50.42;;;23.88;;
51852;SDS011;37894;53.172;6.598;2024-03-08T01:12:43;49.72;;;24.05;;
51852;SDS011;37894;53.172;6.598;2024-03-08T01:15:10;54.45;;;24.00;;
51852;SDS011;37894;53.172;6.598;2024-03-08T01:17:36;45.80;;;22.90;;
51852;SDS011;37894;53.172;6.598;2024-03-08T01:20:04;43.28;;;21.50;;
51852;SDS011;37894;53.172;6.598;2024-03-08T01:22:31;48.20;;;22.55;;
51852;SDS011;37894;53.172;6.598;2024-03-08T01:24:57;43.70;;;22.70;;
51852;SDS011;37894;53.172;6.598;2024-03-08T01:27:23;46.25;;;22.63;;
51852;SDS011;37894;53.172;6.598;2024-03-08T01:29:50;44.97;;;23.38;;
51852;SDS011;37894;53.172;6.598;2024-03-08T01:32:16;49.03;;;23.75;;
51852;SDS011;37894;53.172;6.598;2024-03-08T01:34:42;48.03;;;23.20;;
51852;SDS011;37894;53.172;6.598;2024-03-08T01:37:09;48.00;;;23.40;;
51852;SDS011;37894;53.172;6.598;2024-03-08T01:39:35;52.28;;;23.08;;
51852;SDS011;37894;53.172;6.598;2024-03-08T01:42:01;48.95;;;23.00;;
51852;SDS011;37894;53.172;6.598;2024-03-08T01:44:26;46.35;;;23.05;;
51852;SDS011;37894;53.172;6.598;2024-03-08T01:46:52;47.33;;;22.20;;
51852;SDS011;37894;53.172;6.598;2024-03-08T01:49:19;45.55;;;22.73;;
51852;SDS011;37894;53.172;6.598;2024-03-08T01:51:46;50.95;;;24.35;;
51852;SDS011;37894;53.172;6.598;2024-03-08T01:54:16;48.17;;;22.60;;
51852;SDS011;37894;53.172;6.598;2024-03-08T01:56:45;46.38;;;22.58;;
51852;SDS011;37894;53.172;6.598;2024-03-08T01:59:11;45.03;;;22.75;;
51852;SDS011;37894;53.172;6.598;2024-03-08T02:01:39;49.78;;;23.02;;
51852;SDS011;37894;53.172;6.598;2024-03-08T02:04:05;43.28;;;21.60;;
51852;SDS011;37894;53.172;6.598;2024-03-08T02:06:32;48.15;;;23.42;;
51852;SDS011;37894;53.172;6.598;2024-03-08T02:08:58;46.05;;;23.17;;
51852;SDS011;37894;53.172;6.598;2024-03-08T02:11:24;44.75;;;23.33;;
51852;SDS011;37894;53.172;6.598;2024-03-08T02:13:50;43.42;;;22.95;;
51852;SDS011;37894;53.172;6.598;2024-03-08T02:16:22;46.63;;;22.98;;
51852;SDS011;37894;53.172;6.598;2024-03-08T02:18:47;51.85;;;23.17;;
51852;SDS011;37894;53.172;6.598;2024-03-08T02:21:14;46.90;;;23.98;;
51852;SDS011;37894;53.172;6.598;2024-03-08T02:23:43;45.20;;;22.27;;
51852;SDS011;37894;53.172;6.598;2024-03-08T02:26:09;45.92;;;22.63;;
51852;SDS011;37894;53.172;6.598;2024-03-08T02:28:35;45.25;;;22.83;;
51852;SDS011;37894;53.172;6.598;2024-03-08T02:31:01;42.88;;;21.40;;
51852;SDS011;37894;53.172;6.598;2024-03-08T02:33:27;45.03;;;23.25;;
51852;SDS011;37894;53.172;6.598;2024-03-08T02:35:54;47.55;;;23.77;;
51852;SDS011;37894;53.172;6.598;2024-03-08T02:38:23;49.30;;;23.85;;
51852;SDS011;37894;53.172;6.598;2024-03-08T02:40:49;41.00;;;22.05;;
51852;SDS011;37894;53.172;6.598;2024-03-08T02:43:16;44.80;;;23.23;;
51852;SDS011;37894;53.172;6.598;2024-03-08T02:45:44;43.90;;;22.55;;
51852;SDS011;37894;53.172;6.598;2024-03-08T02:48:13;47.15;;;22.15;;
51852;SDS011;37894;53.172;6.598;2024-03-08T02:50:41;45.78;;;22.50;;
51852;SDS011;37894;53.172;6.598;2024-03-08T02:53:10;42.58;;;22.85;;
51852;SDS011;37894;53.172;6.598;2024-03-08T02:55:40;46.78;;;22.27;;
51852;SDS011;37894;53.172;6.598;2024-03-08T02:58:06;41.38;;;22.23;;
51852;SDS011;37894;53.172;6.598;2024-03-08T03:00:36;43.67;;;22.42;;
51852;SDS011;37894;53.172;6.598;2024-03-08T03:03:03;40.00;;;20.77;;
51852;SDS011;37894;53.172;6.598;2024-03-08T03:05:29;40.08;;;21.30;;
51852;SDS011;37894;53.172;6.598;2024-03-08T03:07:56;43.30;;;21.50;;
51852;SDS011;37894;53.172;6.598;2024-03-08T03:10:23;43.67;;;21.02;;
51852;SDS011;37894;53.172;6.598;2024-03-08T03:12:49;39.97;;;21.77;;
51852;SDS011;37894;53.172;6.598;2024-03-08T03:15:15;40.17;;;21.50;;
51852;SDS011;37894;53.172;6.598;2024-03-08T03:17:47;42.00;;;22.17;;
51852;SDS011;37894;53.172;6.598;2024-03-08T03:20:15;43.55;;;21.95;;
51852;SDS011;37894;53.172;6.598;2024-03-08T03:22:48;41.85;;;22.33;;
51852;SDS011;37894;53.172;6.598;2024-03-08T03:25:21;43.58;;;21.23;;
51852;SDS011;37894;53.172;6.598;2024-03-08T03:28:00;44.03;;;21.77;;
51852;SDS011;37894;53.172;6.598;2024-03-08T03:30:26;43.38;;;21.92;;
51852;SDS011;37894;53.172;6.598;2024-03-08T03:32:56;41.85;;;21.70;;
51852;SDS011;37894;53.172;6.598;2024-03-08T03:35:25;43.53;;;21.75;;
51852;SDS011;37894;53.172;6.598;2024-03-08T03:37:51;43.90;;;21.70;;
51852;SDS011;37894;53.172;6.598;2024-03-08T03:40:38;45.38;;;22.55;;
51852;SDS011;37894;53.172;6.598;2024-03-08T03:43:05;40.92;;;20.63;;
51852;SDS011;37894;53.172;6.598;2024-03-08T03:45:31;42.55;;;21.20;;
51852;SDS011;37894;53.172;6.598;2024-03-08T03:48:06;40.95;;;20.70;;
51852;SDS011;37894;53.172;6.598;2024-03-08T03:50:36;45.70;;;21.02;;
51852;SDS011;37894;53.172;6.598;2024-03-08T03:53:02;45.25;;;22.10;;
51852;SDS011;37894;53.172;6.598;2024-03-08T03:55:28;38.72;;;21.05;;
51852;SDS011;37894;53.172;6.598;2024-03-08T03:57:54;47.70;;;20.90;;
51852;SDS011;37894;53.172;6.598;2024-03-08T04:00:20;45.05;;;20.33;;
51852;SDS011;37894;53.172;6.598;2024-03-08T04:02:46;45.33;;;21.30;;
51852;SDS011;37894;53.172;6.598;2024-03-08T04:05:12;44.45;;;22.17;;
51852;SDS011;37894;53.172;6.598;2024-03-08T04:07:38;47.35;;;23.63;;
51852;SDS011;37894;53.172;6.598;2024-03-08T04:10:05;43.25;;;21.67;;
51852;SDS011;37894;53.172;6.598;2024-03-08T04:12:33;38.15;;;19.58;;
51852;SDS011;37894;53.172;6.598;2024-03-08T04:14:59;39.95;;;21.25;;
51852;SDS011;37894;53.172;6.598;2024-03-08T04:17:25;38.80;;;20.98;;
51852;SDS011;37894;53.172;6.598;2024-03-08T04:19:51;39.08;;;20.75;;
51852;SDS011;37894;53.172;6.598;2024-03-08T04:22:17;41.08;;;20.60;;
51852;SDS011;37894;53.172;6.598;2024-03-08T04:24:43;40.10;;;21.15;;
51852;SDS011;37894;53.172;6.598;2024-03-08T04:27:10;39.67;;;21.45;;
51852;SDS011;37894;53.172;6.598;2024-03-08T04:29:35;42.97;;;21.70;;
51852;SDS011;37894;53.172;6.598;2024-03-08T04:32:05;41.67;;;21.55;;
51852;SDS011;37894;53.172;6.598;2024-03-08T04:34:32;36.97;;;20.30;;
51852;SDS011;37894;53.172;6.598;2024-03-08T04:37:02;44.95;;;20.80;;
51852;SDS011;37894;53.172;6.598;2024-03-08T04:39:29;40.00;;;20.63;;
51852;SDS011;37894;53.172;6.598;2024-03-08T04:42:01;39.80;;;20.60;;
51852;SDS011;37894;53.172;6.598;2024-03-08T04:44:32;39.28;;;20.55;;
51852;SDS011;37894;53.172;6.598;2024-03-08T04:46:58;36.17;;;20.35;;
51852;SDS011;37894;53.172;6.598;2024-03-08T04:49:25;42.80;;;21.40;;
51852;SDS011;37894;53.172;6.598;2024-03-08T04:51:50;38.47;;;20.52;;
51852;SDS011;37894;53.172;6.598;2024-03-08T04:54:16;43.22;;;20.30;;
51852;SDS011;37894;53.172;6.598;2024-03-08T04:56:42;40.13;;;20.08;;
51852;SDS011;37894;53.172;6.598;2024-03-08T04:59:08;41.75;;;19.88;;
51852;SDS011;37894;53.172;6.598;2024-03-08T05:01:33;39.97;;;20.35;;
51852;SDS011;37894;53.172;6.598;2024-03-08T05:04:03;41.00;;;20.13;;
51852;SDS011;37894;53.172;6.598;2024-03-08T05:06:29;44.58;;;21.08;;
51852;SDS011;37894;53.172;6.598;2024-03-08T05:08:55;45.80;;;20.17;;
51852;SDS011;37894;53.172;6.598;2024-03-08T05:11:21;39.53;;;20.60;;
51852;SDS011;37894;53.172;6.598;2024-03-08T05:13:47;38.10;;;19.05;;
51852;SDS011;37894;53.172;6.598;2024-03-08T05:16:13;36.40;;;19.58;;
51852;SDS011;37894;53.172;6.598;2024-03-08T05:18:40;37.83;;;19.17;;
51852;SDS011;37894;53.172;6.598;2024-03-08T05:21:07;36.63;;;18.85;;
51852;SDS011;37894;53.172;6.598;2024-03-08T05:23:34;36.22;;;19.73;;
51852;SDS011;37894;53.172;6.598;2024-03-08T05:26:00;43.10;;;20.08;;
51852;SDS011;37894;53.172;6.598;2024-03-08T05:28:26;40.78;;;20.35;;
51852;SDS011;37894;53.172;6.598;2024-03-08T05:30:52;40.50;;;19.80;;
51852;SDS011;37894;53.172;6.598;2024-03-08T05:33:17;40.20;;;18.00;;
51852;SDS011;37894;53.172;6.598;2024-03-08T05:35:44;38.10;;;19.88;;
51852;SDS011;37894;53.172;6.598;2024-03-08T05:38:10;35.65;;;19.25;;
51852;SDS011;37894;53.172;6.598;2024-03-08T05:40:38;42.88;;;20.25;;
51852;SDS011;37894;53.172;6.598;2024-03-08T05:43:04;38.13;;;20.08;;
51852;SDS011;37894;53.172;6.598;2024-03-08T05:45:30;40.22;;;19.48;;
51852;SDS011;37894;53.172;6.598;2024-03-08T05:47:56;36.08;;;18.92;;
51852;SDS011;37894;53.172;6.598;2024-03-08T05:50:21;39.22;;;18.98;;
51852;SDS011;37894;53.172;6.598;2024-03-08T05:52:48;37.08;;;18.90;;
51852;SDS011;37894;53.172;6.598;2024-03-08T05:55:14;39.15;;;19.42;;
51852;SDS011;37894;53.172;6.598;2024-03-08T05:57:41;40.55;;;20.35;;
51852;SDS011;37894;53.172;6.598;2024-03-08T06:00:07;35.22;;;18.83;;
51852;SDS011;37894;53.172;6.598;2024-03-08T06:02:36;35.03;;;18.83;;
51852;SDS011;37894;53.172;6.598;2024-03-08T06:05:06;34.92;;;17.67;;
51852;SDS011;37894;53.172;6.598;2024-03-08T06:07:36;37.53;;;17.98;;
51852;SDS011;37894;53.172;6.598;2024-03-08T06:10:05;39.08;;;18.90;;
51852;SDS011;37894;53.172;6.598;2024-03-08T06:12:36;39.92;;;19.23;;
51852;SDS011;37894;53.172;6.598;2024-03-08T06:15:08;37.58;;;18.63;;
51852;SDS011;37894;53.172;6.598;2024-03-08T06:17:38;36.65;;;19.10;;
51852;SDS011;37894;53.172;6.598;2024-03-08T06:20:03;38.72;;;18.65;;
51852;SDS011;37894;53.172;6.598;2024-03-08T06:22:36;35.40;;;17.92;;
51852;SDS011;37894;53.172;6.598;2024-03-08T06:25:03;35.78;;;18.42;;
51852;SDS011;37894;53.172;6.598;2024-03-08T06:27:29;36.25;;;18.88;;
51852;SDS011;37894;53.172;6.598;2024-03-08T06:29:55;41.67;;;18.45;;
51852;SDS011;37894;53.172;6.598;2024-03-08T06:32:20;39.78;;;18.15;;
51852;SDS011;37894;53.172;6.598;2024-03-08T06:34:47;35.63;;;19.30;;
51852;SDS011;37894;53.172;6.598;2024-03-08T06:37:15;39.22;;;18.73;;
51852;SDS011;37894;53.172;6.598;2024-03-08T06:39:40;41.17;;;18.73;;
51852;SDS011;37894;53.172;6.598;2024-03-08T06:42:07;39.33;;;19.45;;
51852;SDS011;37894;53.172;6.598;2024-03-08T06:44:34;37.38;;;18.90;;
51852;SDS011;37894;53.172;6.598;2024-03-08T06:47:00;34.80;;;18.45;;
51852;SDS011;37894;53.172;6.598;2024-03-08T06:49:25;40.05;;;17.75;;
51852;SDS011;37894;53.172;6.598;2024-03-08T06:51:51;37.80;;;17.48;;
51852;SDS011;37894;53.172;6.598;2024-03-08T06:54:17;33.58;;;18.42;;
51852;SDS011;37894;53.172;6.598;2024-03-08T06:56:43;37.97;;;19.33;;
51852;SDS011;37894;53.172;6.598;2024-03-08T06:59:12;35.25;;;17.42;;
51852;SDS011;37894;53.172;6.598;2024-03-08T07:01:38;37.92;;;19.65;;
51852;SDS011;37894;53.172;6.598;2024-03-08T07:04:04;35.00;;;17.98;;
51852;SDS011;37894;53.172;6.598;2024-03-08T07:06:30;34.50;;;18.10;;
51852;SDS011;37894;53.172;6.598;2024-03-08T07:08:58;40.08;;;19.80;;
51852;SDS011;37894;53.172;6.598;2024-03-08T07:11:24;37.00;;;19.23;;
51852;SDS011;37894;53.172;6.598;2024-03-08T07:13:50;37.85;;;19.35;;
51852;SDS011;37894;53.172;6.598;2024-03-08T07:16:16;39.22;;;18.30;;
51852;SDS011;37894;53.172;6.598;2024-03-08T07:18:43;39.13;;;18.95;;
51852;SDS011;37894;53.172;6.598;2024-03-08T07:21:09;37.38;;;18.95;;
51852;SDS011;37894;53.172;6.598;2024-03-08T07:23:38;33.90;;;18.33;;
51852;SDS011;37894;53.172;6.598;2024-03-08T07:26:24;35.05;;;19.13;;
51852;SDS011;37894;53.172;6.598;2024-03-08T07:28:49;32.70;;;17.48;;
51852;SDS011;37894;53.172;6.598;2024-03-08T07:31:15;37.38;;;19.42;;
51852;SDS011;37894;53.172;6.598;2024-03-08T07:33:41;33.25;;;18.20;;
51852;SDS011;37894;53.172;6.598;2024-03-08T07:36:07;35.13;;;18.92;;
51852;SDS011;37894;53.172;6.598;2024-03-08T07:38:33;34.08;;;18.75;;
51852;SDS011;37894;53.172;6.598;2024-03-08T07:40:59;38.90;;;19.23;;
51852;SDS011;37894;53.172;6.598;2024-03-08T07:43:26;38.95;;;18.63;;
51852;SDS011;37894;53.172;6.598;2024-03-08T07:45:52;34.63;;;18.25;;
51852;SDS011;37894;53.172;6.598;2024-03-08T07:48:20;33.05;;;18.30;;
51852;SDS011;37894;53.172;6.598;2024-03-08T07:50:46;35.33;;;17.48;;
51852;SDS011;37894;53.172;6.598;2024-03-08T07:53:15;36.83;;;19.13;;
51852;SDS011;37894;53.172;6.598;2024-03-08T07:55:40;31.95;;;17.58;;
51852;SDS011;37894;53.172;6.598;2024-03-08T07:58:07;34.80;;;18.48;;
51852;SDS011;37894;53.172;6.598;2024-03-08T08:00:36;33.92;;;19.02;;
51852;SDS011;37894;53.172;6.598;2024-03-08T08:03:02;38.92;;;19.73;;
51852;SDS011;37894;53.172;6.598;2024-03-08T08:05:28;39.38;;;19.38;;
51852;SDS011;37894;53.172;6.598;2024-03-08T08:07:55;33.42;;;17.80;;
51852;SDS011;37894;53.172;6.598;2024-03-08T08:10:21;34.50;;;19.17;;
51852;SDS011;37894;53.172;6.598;2024-03-08T08:12:50;35.33;;;18.77;;
51852;SDS011;37894;53.172;6.598;2024-03-08T08:15:19;36.75;;;18.63;;
51852;SDS011;37894;53.172;6.598;2024-03-08T08:17:45;32.90;;;18.38;;
51852;SDS011;37894;53.172;6.598;2024-03-08T08:20:11;38.10;;;18.70;;
51852;SDS011;37894;53.172;6.598;2024-03-08T08:22:41;32.22;;;18.88;;
51852;SDS011;37894;53.172;6.598;2024-03-08T08:25:08;38.97;;;20.05;;
51852;SDS011;37894;53.172;6.598;2024-03-08T08:27:35;36.22;;;19.23;;
51852;SDS011;37894;53.172;6.598;2024-03-08T08:30:02;40.65;;;20.70;;
51852;SDS011;37894;53.172;6.598;2024-03-08T08:32:33;35.72;;;19.35;;
51852;SDS011;37894;53.172;6.598;2024-03-08T08:34:59;34.95;;;19.95;;
51852;SDS011;37894;53.172;6.598;2024-03-08T08:37:24;34.30;;;18.35;;
51852;SDS011;37894;53.172;6.598;2024-03-08T08:39:50;34.83;;;19.35;;
51852;SDS011;37894;53.172;6.598;2024-03-08T08:42:16;32.65;;;19.13;;
51852;SDS011;37894;53.172;6.598;2024-03-08T08:44:42;35.65;;;19.77;;
51852;SDS011;37894;53.172;6.598;2024-03-08T08:47:08;31.20;;;19.23;;
51852;SDS011;37894;53.172;6.598;2024-03-08T08:49:34;34.63;;;19.48;;
51852;SDS011;37894;53.172;6.598;2024-03-08T08:52:00;32.78;;;18.90;;
51852;SDS011;37894;53.172;6.598;2024-03-08T08:54:26;34.65;;;18.83;;
51852;SDS011;37894;53.172;6.598;2024-03-08T08:56:55;32.67;;;19.77;;
51852;SDS011;37894;53.172;6.598;2024-03-08T08:59:21;32.72;;;18.85;;
51852;SDS011;37894;53.172;6.598;2024-03-08T09:01:50;36.30;;;19.60;;
51852;SDS011;37894;53.172;6.598;2024-03-08T09:04:18;33.97;;;19.33;;
51852;SDS011;37894;53.172;6.598;2024-03-08T09:06:44;37.38;;;19.23;;
51852;SDS011;37894;53.172;6.598;2024-03-08T09:09:11;33.05;;;17.45;;
51852;SDS011;37894;53.172;6.598;2024-03-08T09:11:38;33.65;;;18.50;;
51852;SDS011;37894;53.172;6.598;2024-03-08T09:14:06;33.78;;;20.45;;
51852;SDS011;37894;53.172;6.598;2024-03-08T09:16:33;33.42;;;19.50;;
51852;SDS011;37894;53.172;6.598;2024-03-08T09:18:58;33.25;;;18.10;;
51852;SDS011;37894;53.172;6.598;2024-03-08T09:21:24;32.20;;;18.67;;
51852;SDS011;37894;53.172;6.598;2024-03-08T09:23:52;35.38;;;19.63;;
51852;SDS011;37894;53.172;6.598;2024-03-08T09:26:19;32.05;;;19.65;;
51852;SDS011;37894;53.172;6.598;2024-03-08T09:28:47;32.10;;;19.48;;
51852;SDS011;37894;53.172;6.598;2024-03-08T09:31:13;31.73;;;19.48;;
51852;SDS011;37894;53.172;6.598;2024-03-08T09:33:41;31.77;;;19.50;;
51852;SDS011;37894;53.172;6.598;2024-03-08T09:36:07;32.75;;;18.38;;
51852;SDS011;37894;53.172;6.598;2024-03-08T09:38:33;28.60;;;17.98;;
51852;SDS011;37894;53.172;6.598;2024-03-08T09:41:02;38.03;;;21.25;;
51852;SDS011;37894;53.172;6.598;2024-03-08T09:43:29;34.55;;;19.60;;
51852;SDS011;37894;53.172;6.598;2024-03-08T09:45:56;32.38;;;19.17;;
51852;SDS011;37894;53.172;6.598;2024-03-08T09:48:23;31.70;;;18.85;;
51852;SDS011;37894;53.172;6.598;2024-03-08T09:50:50;34.67;;;19.55;;
51852;SDS011;37894;53.172;6.598;2024-03-08T09:53:16;33.85;;;20.23;;
51852;SDS011;37894;53.172;6.598;2024-03-08T09:55:42;34.53;;;20.35;;
51852;SDS011;37894;53.172;6.598;2024-03-08T09:58:10;31.45;;;19.00;;
51852;SDS011;37894;53.172;6.598;2024-03-08T10:00:43;36.53;;;20.35;;
51852;SDS011;37894;53.172;6.598;2024-03-08T10:03:09;33.40;;;19.80;;
51852;SDS011;37894;53.172;6.598;2024-03-08T10:05:35;34.28;;;19.30;;
51852;SDS011;37894;53.172;6.598;2024-03-08T10:08:02;34.55;;;20.17;;
51852;SDS011;37894;53.172;6.598;2024-03-08T10:10:28;37.42;;;20.08;;
51852;SDS011;37894;53.172;6.598;2024-03-08T10:12:55;31.33;;;18.95;;
51852;SDS011;37894;53.172;6.598;2024-03-08T10:15:21;33.97;;;19.95;;
51852;SDS011;37894;53.172;6.598;2024-03-08T10:17:47;33.60;;;20.10;;
51852;SDS011;37894;53.172;6.598;2024-03-08T10:20:17;33.20;;;20.35;;
51852;SDS011;37894;53.172;6.598;2024-03-08T10:22:43;36.78;;;21.38;;
51852;SDS011;37894;53.172;6.598;2024-03-08T10:25:10;33.65;;;20.95;;
51852;SDS011;37894;53.172;6.598;2024-03-08T10:27:40;31.65;;;20.70;;
51852;SDS011;37894;53.172;6.598;2024-03-08T10:30:06;34.58;;;20.20;;
51852;SDS011;37894;53.172;6.598;2024-03-08T10:32:35;31.88;;;19.55;;
51852;SDS011;37894;53.172;6.598;2024-03-08T10:35:01;34.78;;;21.73;;
51852;SDS011;37894;53.172;6.598;2024-03-08T10:37:27;31.42;;;18.67;;
51852;SDS011;37894;53.172;6.598;2024-03-08T10:40:04;33.28;;;19.65;;
51852;SDS011;37894;53.172;6.598;2024-03-08T10:42:41;33.00;;;19.58;;
51852;SDS011;37894;53.172;6.598;2024-03-08T10:47:50;34.28;;;19.52;;
51852;SDS011;37894;53.172;6.598;2024-03-08T10:50:24;34.85;;;20.63;;
51852;SDS011;37894;53.172;6.598;2024-03-08T10:52:52;36.13;;;21.15;;
51852;SDS011;37894;53.172;6.598;2024-03-08T10:55:18;34.38;;;20.27;;
51852;SDS011;37894;53.172;6.598;2024-03-08T10:57:47;32.28;;;19.92;;
51852;SDS011;37894;53.172;6.598;2024-03-08T11:00:13;35.50;;;19.58;;
51852;SDS011;37894;53.172;6.598;2024-03-08T11:02:45;33.45;;;19.88;;
51852;SDS011;37894;53.172;6.598;2024-03-08T11:05:30;32.53;;;19.85;;
51852;SDS011;37894;53.172;6.598;2024-03-08T11:08:00;30.58;;;19.92;;
51852;SDS011;37894;53.172;6.598;2024-03-08T11:10:27;33.13;;;20.48;;
51852;SDS011;37894;53.172;6.598;2024-03-08T11:12:53;31.75;;;20.83;;
51852;SDS011;37894;53.172;6.598;2024-03-08T11:15:19;33.25;;;19.52;;
51852;SDS011;37894;53.172;6.598;2024-03-08T11:17:48;28.13;;;18.98;;
51852;SDS011;37894;53.172;6.598;2024-03-08T11:20:15;32.00;;;19.55;;
51852;SDS011;37894;53.172;6.598;2024-03-08T11:22:49;30.90;;;18.95;;
51852;SDS011;37894;53.172;6.598;2024-03-08T11:25:37;30.67;;;19.58;;
51852;SDS011;37894;53.172;6.598;2024-03-08T11:28:25;31.95;;;19.60;;
51852;SDS011;37894;53.172;6.598;2024-03-08T11:33:34;29.88;;;19.42;;
51852;SDS011;37894;53.172;6.598;2024-03-08T11:38:45;28.17;;;19.90;;
51852;SDS011;37894;53.172;6.598;2024-03-08T11:41:15;29.52;;;19.38;;
51852;SDS011;37894;53.172;6.598;2024-03-08T11:43:43;28.77;;;19.50;;
51852;SDS011;37894;53.172;6.598;2024-03-08T11:46:13;32.63;;;19.70;;
51852;SDS011;37894;53.172;6.598;2024-03-08T11:48:43;30.77;;;19.13;;
51852;SDS011;37894;53.172;6.598;2024-03-08T11:51:13;28.80;;;19.35;;
51852;SDS011;37894;53.172;6.598;2024-03-08T11:53:40;26.85;;;19.65;;
51852;SDS011;37894;53.172;6.598;2024-03-08T11:56:10;30.58;;;19.52;;
51852;SDS011;37894;53.172;6.598;2024-03-08T11:58:40;30.10;;;19.73;;
51852;SDS011;37894;53.172;6.598;2024-03-08T12:01:09;30.98;;;20.02;;
51852;SDS011;37894;53.172;6.598;2024-03-08T12:03:39;27.95;;;18.40;;
51852;SDS011;37894;53.172;6.598;2024-03-08T12:06:10;31.70;;;18.38;;
51852;SDS011;37894;53.172;6.598;2024-03-08T12:08:38;28.08;;;18.10;;
51852;SDS011;37894;53.172;6.598;2024-03-08T12:11:05;25.80;;;18.05;;
51852;SDS011;37894;53.172;6.598;2024-03-08T12:13:32;29.95;;;19.27;;
51852;SDS011;37894;53.172;6.598;2024-03-08T12:15:59;29.65;;;18.60;;
51852;SDS011;37894;53.172;6.598;2024-03-08T12:18:38;28.85;;;19.27;;
51852;SDS011;37894;53.172;6.598;2024-03-08T12:21:07;29.27;;;19.13;;
51852;SDS011;37894;53.172;6.598;2024-03-08T12:23:35;26.80;;;18.07;;
51852;SDS011;37894;53.172;6.598;2024-03-08T12:26:12;29.08;;;19.48;;
51852;SDS011;37894;53.172;6.598;2024-03-08T12:28:42;28.98;;;19.23;;
51852;SDS011;37894;53.172;6.598;2024-03-08T12:31:11;28.85;;;18.63;;
51852;SDS011;37894;53.172;6.598;2024-03-08T12:33:46;28.40;;;18.85;;
51852;SDS011;37894;53.172;6.598;2024-03-08T12:36:16;28.05;;;18.85;;
51852;SDS011;37894;53.172;6.598;2024-03-08T12:38:46;27.75;;;18.33;;
51852;SDS011;37894;53.172;6.598;2024-03-08T12:43:42;27.98;;;19.55;;
51852;SDS011;37894;53.172;6.598;2024-03-08T12:46:22;30.33;;;19.73;;
51852;SDS011;37894;53.172;6.598;2024-03-08T12:48:51;28.85;;;18.63;;
51852;SDS011;37894;53.172;6.598;2024-03-08T12:51:19;31.05;;;20.15;;
51852;SDS011;37894;53.172;6.598;2024-03-08T12:53:46;31.40;;;19.40;;
51852;SDS011;37894;53.172;6.598;2024-03-08T12:56:34;28.88;;;18.60;;
51852;SDS011;37894;53.172;6.598;2024-03-08T12:59:02;29.85;;;19.65;;
51852;SDS011;37894;53.172;6.598;2024-03-08T13:01:30;30.27;;;20.27;;
51852;SDS011;37894;53.172;6.598;2024-03-08T13:03:59;29.90;;;19.88;;
51852;SDS011;37894;53.172;6.598;2024-03-08T13:06:28;27.98;;;18.85;;
51852;SDS011;37894;53.172;6.598;2024-03-08T13:08:56;29.67;;;19.65;;
51852;SDS011;37894;53.172;6.598;2024-03-08T13:11:23;30.13;;;19.80;;
51852;SDS011;37894;53.172;6.598;2024-03-08T13:13:53;29.92;;;18.80;;
51852;SDS011;37894;53.172;6.598;2024-03-08T13:16:18;27.77;;;19.20;;
51852;SDS011;37894;53.172;6.598;2024-03-08T13:18:47;28.63;;;18.33;;
51852;SDS011;37894;53.172;6.598;2024-03-08T13:21:14;29.27;;;18.40;;
51852;SDS011;37894;53.172;6.598;2024-03-08T13:23:40;26.65;;;17.30;;
51852;SDS011;37894;53.172;6.598;2024-03-08T13:26:11;30.40;;;18.50;;
51852;SDS011;37894;53.172;6.598;2024-03-08T13:28:40;26.20;;;16.83;;
51852;SDS011;37894;53.172;6.598;2024-03-08T13:31:14;30.13;;;17.95;;
51852;SDS011;37894;53.172;6.598;2024-03-08T13:33:40;28.15;;;17.50;;
51852;SDS011;37894;53.172;6.598;2024-03-08T13:36:07;30.20;;;18.83;;
51852;SDS011;37894;53.172;6.598;2024-03-08T13:38:49;28.58;;;18.13;;
51852;SDS011;37894;53.172;6.598;2024-03-08T13:41:15;28.58;;;18.50;;
51852;SDS011;37894;53.172;6.598;2024-03-08T13:43:42;25.90;;;17.30;;
51852;SDS011;37894;53.172;6.598;2024-03-08T13:46:08;23.80;;;15.98;;
51852;SDS011;37894;53.172;6.598;2024-03-08T13:48:35;25.40;;;17.02;;
51852;SDS011;37894;53.172;6.598;2024-03-08T13:51:06;27.40;;;18.00;;
51852;SDS011;37894;53.172;6.598;2024-03-08T13:53:33;26.13;;;16.13;;
51852;SDS011;37894;53.172;6.598;2024-03-08T13:56:02;25.38;;;16.15;;
51852;SDS011;37894;53.172;6.598;2024-03-08T13:58:28;23.67;;;16.33;;
51852;SDS011;37894;53.172;6.598;2024-03-08T14:00:54;24.50;;;16.00;;
51852;SDS011;37894;53.172;6.598;2024-03-08T14:03:21;26.10;;;16.13;;
51852;SDS011;37894;53.172;6.598;2024-03-08T14:05:47;23.83;;;15.20;;
51852;SDS011;37894;53.172;6.598;2024-03-08T14:08:12;26.13;;;16.73;;
51852;SDS011;37894;53.172;6.598;2024-03-08T14:10:39;23.85;;;16.10;;
51852;SDS011;37894;53.172;6.598;2024-03-08T14:13:05;24.77;;;16.77;;
51852;SDS011;37894;53.172;6.598;2024-03-08T14:15:32;25.02;;;15.93;;
51852;SDS011;37894;53.172;6.598;2024-03-08T14:18:16;21.90;;;15.05;;
51852;SDS011;37894;53.172;6.598;2024-03-08T14:20:48;23.50;;;16.20;;
51852;SDS011;37894;53.172;6.598;2024-03-08T14:23:19;22.92;;;15.90;;
51852;SDS011;37894;53.172;6.598;2024-03-08T14:25:48;26.83;;;15.23;;
51852;SDS011;37894;53.172;6.598;2024-03-08T14:28:17;24.25;;;15.93;;
51852;SDS011;37894;53.172;6.598;2024-03-08T14:30:44;25.88;;;16.17;;
51852;SDS011;37894;53.172;6.598;2024-03-08T14:33:10;26.30;;;16.35;;
51852;SDS011;37894;53.172;6.598;2024-03-08T14:35:36;23.40;;;15.68;;